createdAt,value
2019-02-22T00:00:48.541Z,30.87
2019-02-22T00:03:17.035Z,31.37
2019-02-22T00:05:45.622Z,29.73
2019-02-22T00:08:14.117Z,28.80
2019-02-22T00:10:43.358Z,28.17
2019-02-22T00:13:11.855Z,29.80
2019-02-22T00:15:40.431Z,32.60
2019-02-22T00:18:08.912Z,29.47
2019-02-22T00:20:37.418Z,30.73
2019-02-22T00:23:05.899Z,31.53
2019-02-22T00:25:34.424Z,33.13
2019-02-22T00:28:03.083Z,33.13
2019-02-22T00:30:31.598Z,33.80
2019-02-22T00:33:00.078Z,32.63
2019-02-22T00:35:28.675Z,33.60
2019-02-22T00:37:58.161Z,36.17
2019-02-22T00:40:26.677Z,36.33
2019-02-22T00:42:55.164Z,37.17
2019-02-22T00:45:23.598Z,33.30
2019-02-22T00:47:52.097Z,30.90
2019-02-22T00:50:20.714Z,29.50
2019-02-22T00:52:49.239Z,25.40
2019-02-22T00:55:17.743Z,24.63
2019-02-22T00:57:46.302Z,22.93
2019-02-22T01:00:14.945Z,23.37
2019-02-22T01:02:43.438Z,23.53
2019-02-22T01:05:12.006Z,23.90
2019-02-22T01:07:40.559Z,24.57
2019-02-22T01:10:09.166Z,31.90
2019-02-22T01:12:37.654Z,32.83
2019-02-22T01:15:06.996Z,34.90
2019-02-22T01:17:35.485Z,34.47
2019-02-22T01:20:04.707Z,39.17
2019-02-22T01:22:33.239Z,37.93
2019-02-22T01:25:01.765Z,37.67
2019-02-22T01:27:30.236Z,40.50
2019-02-22T01:29:58.742Z,41.50
2019-02-22T01:32:27.307Z,43.50
2019-02-22T01:34:55.839Z,46.73
2019-02-22T01:37:24.414Z,49.57
2019-02-22T01:39:52.929Z,53.87
2019-02-22T01:42:21.445Z,53.67
2019-02-22T01:44:49.955Z,55.20
2019-02-22T01:47:18.436Z,54.40
2019-02-22T01:49:46.945Z,50.37
2019-02-22T01:52:15.441Z,53.60
2019-02-22T01:54:43.956Z,51.37
2019-02-22T01:57:12.524Z,49.70
2019-02-22T01:59:41.039Z,53.77
2019-02-22T02:02:09.651Z,45.20
2019-02-22T02:04:38.145Z,49.90
2019-02-22T02:07:08.261Z,52.10
2019-02-22T02:09:36.869Z,53.77
2019-02-22T02:12:05.354Z,48.23
2019-02-22T02:14:33.868Z,47.17
2019-02-22T02:17:02.368Z,45.23
2019-02-22T02:19:30.853Z,41.87
2019-02-22T02:21:59.359Z,42.90
2019-02-22T02:24:27.876Z,40.50
2019-02-22T02:26:56.375Z,38.43
2019-02-22T02:29:25.992Z,39.73
2019-02-22T02:31:54.516Z,39.00
2019-02-22T02:34:22.998Z,36.33
2019-02-22T02:36:51.515Z,35.53
2019-02-22T02:39:20.011Z,35.53
2019-02-22T02:41:48.519Z,35.07
2019-02-22T02:44:17.005Z,34.27
2019-02-22T02:46:45.547Z,33.87
2019-02-22T02:49:14.020Z,34.50
2019-02-22T02:51:42.605Z,33.10
2019-02-22T02:54:11.091Z,25.03
2019-02-22T02:56:40.627Z,26.43
2019-02-22T02:59:09.119Z,25.43
2019-02-22T03:01:37.815Z,24.70
2019-02-22T03:04:07.887Z,27.20
2019-02-22T03:06:38.500Z,24.37
2019-02-22T03:09:08.804Z,26.00
2019-02-22T03:11:37.321Z,22.70
2019-02-22T03:14:05.846Z,23.17
2019-02-22T03:16:34.333Z,24.23
2019-02-22T03:19:02.819Z,22.70
2019-02-22T03:21:31.339Z,22.07
2019-02-22T03:23:59.831Z,23.43
2019-02-22T03:26:28.346Z,21.73
2019-02-22T03:28:56.831Z,20.77
2019-02-22T03:31:25.351Z,21.83
2019-02-22T03:33:53.839Z,17.57
2019-02-22T03:36:22.379Z,18.53
2019-02-22T03:38:50.838Z,16.53
2019-02-22T03:41:19.350Z,13.00
2019-02-22T03:43:47.834Z,15.97
2019-02-22T03:46:16.340Z,12.70
2019-02-22T03:48:44.825Z,13.17
2019-02-22T03:51:13.333Z,10.87
2019-02-22T03:53:43.456Z,10.10
2019-02-22T03:56:12.023Z,10.07
2019-02-22T03:58:40.693Z,10.83
2019-02-22T04:01:09.203Z,10.30
2019-02-22T04:03:37.682Z,12.57
2019-02-22T04:06:06.201Z,13.00
2019-02-22T04:08:36.973Z,9.73
2019-02-22T04:11:05.490Z,10.47
2019-02-22T04:13:33.966Z,11.77
2019-02-22T04:16:02.481Z,11.33
2019-02-22T04:18:30.957Z,12.07
2019-02-22T04:20:59.544Z,10.57
2019-02-22T04:23:28.031Z,10.10
2019-02-22T04:25:56.544Z,8.87
2019-02-22T04:28:25.023Z,8.67
2019-02-22T04:30:53.518Z,8.57
2019-02-22T04:33:21.998Z,9.33
2019-02-22T04:35:50.496Z,8.23
2019-02-22T04:38:18.983Z,7.83
2019-02-22T04:40:47.494Z,9.93
2019-02-22T04:43:15.963Z,7.67
2019-02-22T04:45:44.453Z,6.80
2019-02-22T04:48:13.739Z,7.43
2019-02-22T04:50:42.220Z,8.60
2019-02-22T04:53:10.779Z,8.60
2019-02-22T04:55:39.368Z,8.37
2019-02-22T04:58:08.977Z,10.73
2019-02-22T05:00:37.454Z,8.73
2019-02-22T05:03:05.971Z,10.83
2019-02-22T05:05:34.447Z,12.23
2019-02-22T05:08:02.991Z,10.17
2019-02-22T05:10:31.468Z,11.03
2019-02-22T05:12:59.981Z,11.70
2019-02-22T05:15:29.340Z,10.43
2019-02-22T05:17:57.838Z,11.13
2019-02-22T05:20:26.338Z,11.03
2019-02-22T05:23:03.265Z,11.77
2019-02-22T05:25:25.040Z,13.77
2019-02-22T05:27:53.557Z,12.67
2019-02-22T05:30:22.051Z,12.40
2019-02-22T05:32:50.570Z,10.27
2019-02-22T05:35:19.049Z,8.60
2019-02-22T05:37:47.546Z,6.80
2019-02-22T05:40:16.087Z,6.77
2019-02-22T05:42:44.594Z,6.43
2019-02-22T05:45:13.126Z,8.47
2019-02-22T05:47:41.911Z,6.17
2019-02-22T05:50:10.485Z,6.60
2019-02-22T05:52:38.998Z,6.50
2019-02-22T05:55:09.081Z,6.67
2019-02-22T05:57:37.550Z,6.30
2019-02-22T06:00:07.556Z,6.27
2019-02-22T06:02:36.124Z,5.00
2019-02-22T06:05:05.761Z,4.83
2019-02-22T06:07:34.254Z,2.97
2019-02-22T06:10:02.741Z,3.03
2019-02-22T06:12:34.620Z,4.00
2019-02-22T06:15:01.477Z,5.27
2019-02-22T06:17:30.005Z,5.73
2019-02-22T06:19:58.484Z,6.53
2019-02-22T06:22:29.894Z,5.93
2019-02-22T06:24:57.206Z,6.70
2019-02-22T06:27:25.709Z,7.00
2019-02-22T06:29:54.221Z,7.80
2019-02-22T06:32:22.713Z,7.27
2019-02-22T06:34:51.191Z,9.40
2019-02-22T06:37:19.706Z,9.50
2019-02-22T06:39:48.207Z,7.77
2019-02-22T06:42:16.689Z,11.47
2019-02-22T06:44:45.180Z,10.27
2019-02-22T06:47:13.688Z,12.10
2019-02-22T06:49:44.492Z,12.90
2019-02-22T06:52:13.227Z,15.03
2019-02-22T06:54:41.729Z,16.87
2019-02-22T06:57:10.245Z,18.90
2019-02-22T06:59:38.730Z,20.17
2019-02-22T07:02:08.183Z,21.03
2019-02-22T07:04:36.691Z,24.67
2019-02-22T07:07:05.344Z,22.63
2019-02-22T07:09:33.832Z,30.00
2019-02-22T07:12:03.970Z,30.67
2019-02-22T07:14:32.484Z,36.17
2019-02-22T07:17:00.974Z,39.57
2019-02-22T07:19:29.489Z,35.13
2019-02-22T07:21:57.979Z,38.97
2019-02-22T07:24:26.497Z,38.77
2019-02-22T07:26:55.033Z,42.63
2019-02-22T07:29:23.545Z,51.17
2019-02-22T07:31:52.043Z,50.93
2019-02-22T07:34:20.567Z,46.43
2019-02-22T07:36:50.570Z,49.67
2019-02-22T07:39:27.448Z,47.73
2019-02-22T07:41:49.315Z,57.20
2019-02-22T07:44:17.845Z,54.60
2019-02-22T07:46:46.361Z,53.30
2019-02-22T07:49:23.445Z,57.33
2019-02-22T07:51:52.008Z,48.97
2019-02-22T07:54:20.537Z,47.37
2019-02-22T07:56:49.122Z,50.23
2019-02-22T07:59:17.640Z,49.40
2019-02-22T08:01:47.629Z,43.37
2019-02-22T08:04:16.405Z,43.47
2019-02-22T08:06:44.906Z,48.37
2019-02-22T08:09:13.427Z,50.43
2019-02-22T08:11:41.933Z,47.17
2019-02-22T08:14:10.575Z,50.30
2019-02-22T08:16:39.077Z,48.87
2019-02-22T08:19:07.587Z,52.03
2019-02-22T08:21:36.077Z,51.03
2019-02-22T08:24:04.709Z,50.10
2019-02-22T08:26:33.275Z,48.20
2019-02-22T08:29:01.790Z,45.73
2019-02-22T08:31:30.287Z,47.03
2019-02-22T08:33:58.950Z,47.73
2019-02-22T08:36:27.458Z,45.03
2019-02-22T08:38:56.130Z,44.97
2019-02-22T08:41:24.614Z,28.37
2019-02-22T08:43:53.131Z,34.53
2019-02-22T08:46:21.634Z,32.17
2019-02-22T08:48:50.160Z,34.00
2019-02-22T08:51:18.844Z,28.50
2019-02-22T08:53:47.318Z,28.77
2019-02-22T08:56:15.815Z,26.77
2019-02-22T08:58:44.316Z,26.50
2019-02-22T09:01:12.835Z,29.77
2019-02-22T09:03:50.779Z,24.70
2019-02-22T09:06:11.685Z,25.87
2019-02-22T09:08:40.150Z,22.47
2019-02-22T09:11:08.732Z,23.37
2019-02-22T09:13:43.705Z,20.83
2019-02-22T09:16:07.481Z,19.33
2019-02-22T09:18:35.975Z,21.20
2019-02-22T09:21:04.490Z,19.70
2019-02-22T09:23:32.980Z,20.23
2019-02-22T09:26:01.494Z,18.80
2019-02-22T09:28:29.995Z,19.63
2019-02-22T09:30:58.599Z,18.77
2019-02-22T09:33:27.107Z,22.47
2019-02-22T09:35:55.629Z,18.10
2019-02-22T09:38:24.136Z,23.07
2019-02-22T09:40:52.682Z,21.13
2019-02-22T09:43:21.171Z,23.83
2019-02-22T09:45:49.684Z,21.47
2019-02-22T09:48:18.175Z,20.97
2019-02-22T09:50:46.690Z,23.33
2019-02-22T09:53:15.197Z,20.13
2019-02-22T09:55:43.722Z,16.60
2019-02-22T09:58:12.223Z,15.73
2019-02-22T10:00:40.726Z,15.17
2019-02-22T10:03:09.212Z,12.73
2019-02-22T10:05:37.722Z,10.73
2019-02-22T10:08:06.206Z,11.03
2019-02-22T10:10:34.739Z,10.50
2019-02-22T10:13:03.215Z,12.83
2019-02-22T10:15:31.741Z,12.50
2019-02-22T10:18:00.232Z,10.70
2019-02-22T10:20:28.753Z,16.93
2019-02-22T10:22:57.229Z,9.63
2019-02-22T10:25:25.740Z,9.67
2019-02-22T10:27:54.220Z,9.13
2019-02-22T10:30:22.729Z,9.90
2019-02-22T10:32:51.216Z,9.63
2019-02-22T10:35:19.714Z,7.90
2019-02-22T10:37:48.200Z,7.83
2019-02-22T10:40:16.714Z,9.53
2019-02-22T10:42:45.202Z,9.83
2019-02-22T10:45:13.705Z,9.50
2019-02-22T10:47:42.178Z,8.57
2019-02-22T10:50:10.826Z,9.20
2019-02-22T10:52:39.298Z,9.67
2019-02-22T10:55:12.547Z,10.40
2019-02-22T10:57:41.036Z,9.97
2019-02-22T11:00:12.854Z,8.63
2019-02-22T11:02:41.403Z,8.80
2019-02-22T11:05:10.083Z,12.10
2019-02-22T11:07:38.561Z,10.20
2019-02-22T11:10:09.885Z,10.33
2019-02-22T11:12:38.361Z,9.87
2019-02-22T11:15:09.497Z,12.70
2019-02-22T11:17:37.995Z,10.33
2019-02-22T11:20:10.700Z,10.13
2019-02-22T11:22:39.273Z,10.70
2019-02-22T11:25:10.944Z,9.93
2019-02-22T11:27:39.426Z,12.60
2019-02-22T11:30:12.843Z,9.10
2019-02-22T11:32:41.384Z,7.53
2019-02-22T11:35:10.766Z,8.67
2019-02-22T11:37:39.247Z,9.83
2019-02-22T11:40:09.297Z,9.43
2019-02-22T11:42:37.783Z,10.60
2019-02-22T11:45:07.729Z,8.33
2019-02-22T11:47:36.201Z,9.20
2019-02-22T11:50:07.558Z,10.57
2019-02-22T11:52:36.051Z,12.03
2019-02-22T11:55:06.654Z,7.17
2019-02-22T11:57:35.231Z,8.80
2019-02-22T12:00:05.687Z,7.67
2019-02-22T12:02:34.271Z,11.67
2019-02-22T12:05:02.756Z,7.97
2019-02-22T12:07:31.273Z,10.50
2019-02-22T12:09:59.740Z,7.50
2019-02-22T12:12:28.247Z,9.07
2019-02-22T12:14:56.735Z,11.13
2019-02-22T12:17:25.393Z,8.50
2019-02-22T12:19:53.871Z,8.43
2019-02-22T12:22:22.369Z,8.03
2019-02-22T12:24:50.853Z,10.80
2019-02-22T12:27:19.412Z,13.37
2019-02-22T12:29:48.067Z,11.10
2019-02-22T12:32:16.568Z,12.67
2019-02-22T12:34:45.044Z,9.47
2019-02-22T12:37:13.566Z,9.37
2019-02-22T12:39:42.025Z,9.30
2019-02-22T12:42:10.532Z,11.00
2019-02-22T12:44:39.007Z,9.03
2019-02-22T12:47:08.373Z,11.63
2019-02-22T12:49:36.856Z,11.90
2019-02-22T12:52:05.440Z,8.10
2019-02-22T12:54:33.930Z,11.60
2019-02-22T12:57:02.440Z,9.07
2019-02-22T12:59:30.921Z,12.73
2019-02-22T13:01:59.442Z,21.10
2019-02-22T13:04:27.930Z,47.33
2019-02-22T13:06:56.445Z,18.53
2019-02-22T13:09:35.999Z,8.87
2019-02-22T13:11:55.164Z,14.70
2019-02-22T13:14:23.652Z,22.57
2019-02-22T13:16:52.162Z,10.53
2019-02-22T13:19:20.659Z,19.97
2019-02-22T13:21:49.205Z,10.97
2019-02-22T13:24:17.693Z,12.40
2019-02-22T13:26:46.208Z,11.03
2019-02-22T13:29:14.730Z,14.27
2019-02-22T13:31:43.240Z,10.30
2019-02-22T13:34:11.723Z,12.40
2019-02-22T13:36:40.230Z,9.10
2019-02-22T13:39:08.711Z,8.33
2019-02-22T13:41:37.297Z,13.63
2019-02-22T13:44:05.807Z,8.33
2019-02-22T13:46:34.320Z,11.03
2019-02-22T13:49:02.870Z,14.23
2019-02-22T13:51:33.964Z,15.10
2019-02-22T13:54:02.318Z,9.40
2019-02-22T13:56:32.520Z,14.33
2019-02-22T13:59:01.003Z,11.70
2019-02-22T14:01:29.528Z,9.00
2019-02-22T14:03:58.021Z,11.10
2019-02-22T14:06:26.624Z,11.57
2019-02-22T14:08:55.111Z,11.70
2019-02-22T14:11:23.668Z,9.97
2019-02-22T14:13:52.154Z,8.83
2019-02-22T14:16:20.673Z,16.87
2019-02-22T14:18:49.168Z,21.07
2019-02-22T14:21:17.688Z,11.80
2019-02-22T14:23:46.176Z,10.30
2019-02-22T14:26:14.739Z,9.80
2019-02-22T14:28:43.260Z,10.67
2019-02-22T14:31:11.740Z,9.50
2019-02-22T14:33:40.258Z,8.87
2019-02-22T14:36:08.749Z,9.53
2019-02-22T14:38:37.293Z,11.50
2019-02-22T14:41:05.789Z,7.37
2019-02-22T14:43:34.795Z,12.50
2019-02-22T14:46:03.305Z,10.83
2019-02-22T14:48:31.826Z,11.13
2019-02-22T14:51:00.314Z,12.50
2019-02-22T14:53:28.831Z,10.67
2019-02-22T14:55:59.792Z,9.03
2019-02-22T14:58:27.579Z,10.90
2019-02-22T15:00:56.079Z,9.60
2019-02-22T15:03:24.598Z,9.83
2019-02-22T15:05:53.089Z,9.67
2019-02-22T15:08:21.613Z,8.90
2019-02-22T15:10:50.182Z,10.17
2019-02-22T15:13:18.908Z,10.53
2019-02-22T15:16:00.579Z,15.57
2019-02-22T15:18:24.951Z,9.97
2019-02-22T15:20:53.452Z,10.63
2019-02-22T15:23:21.980Z,10.27
2019-02-22T15:25:50.481Z,14.70
2019-02-22T15:28:19.007Z,16.23
2019-02-22T15:30:47.647Z,13.53
2019-02-22T15:33:16.194Z,13.10
2019-02-22T15:35:44.665Z,7.80
2019-02-22T15:38:13.182Z,10.67
2019-02-22T15:40:41.663Z,8.70
2019-02-22T15:43:10.167Z,12.60
2019-02-22T15:45:38.653Z,9.63
2019-02-22T15:48:07.155Z,8.77
2019-02-22T15:50:35.626Z,8.17
2019-02-22T15:53:04.254Z,7.73
2019-02-22T15:55:32.909Z,13.03
2019-02-22T15:58:01.405Z,9.70
2019-02-22T16:00:34.198Z,7.20
2019-02-22T16:03:02.711Z,10.10
2019-02-22T16:05:39.105Z,18.13
2019-02-22T16:08:08.026Z,9.80
2019-02-22T16:10:36.645Z,10.63
2019-02-22T16:13:05.222Z,8.57
2019-02-22T16:15:33.780Z,10.73
2019-02-22T16:18:02.302Z,10.97
2019-02-22T16:20:30.859Z,8.90
2019-02-22T16:22:59.378Z,11.40
2019-02-22T16:25:27.864Z,12.43
2019-02-22T16:27:57.923Z,10.57
2019-02-22T16:30:28.108Z,9.73
2019-02-22T16:32:56.608Z,13.53
2019-02-22T16:35:25.115Z,8.90
2019-02-22T16:37:53.622Z,10.97
2019-02-22T16:40:22.119Z,10.07
2019-02-22T16:42:50.626Z,8.90
2019-02-22T16:45:19.149Z,10.73
2019-02-22T16:47:47.663Z,9.07
2019-02-22T16:50:16.152Z,11.77
2019-02-22T16:52:45.353Z,10.67
2019-02-22T16:55:16.924Z,11.00
2019-02-22T16:57:45.426Z,17.47
2019-02-22T17:00:16.064Z,12.63
2019-02-22T17:02:44.652Z,10.60
2019-02-22T17:05:15.475Z,13.27
2019-02-22T17:07:43.996Z,18.77
2019-02-22T17:10:12.670Z,12.57
2019-02-22T17:12:41.253Z,12.63
2019-02-22T17:15:12.057Z,13.20
2019-02-22T17:17:40.574Z,11.00
2019-02-22T17:20:12.504Z,20.60
2019-02-22T17:22:40.985Z,10.67
2019-02-22T17:25:14.977Z,12.77
2019-02-22T17:27:43.487Z,11.67
2019-02-22T17:30:17.049Z,15.23
2019-02-22T17:32:45.590Z,17.47
2019-02-22T17:35:14.154Z,16.57
2019-02-22T17:37:42.620Z,13.27
2019-02-22T17:40:13.775Z,11.17
2019-02-22T17:42:42.270Z,13.67
2019-02-22T17:45:10.799Z,23.47
2019-02-22T17:47:39.283Z,20.37
2019-02-22T17:50:09.843Z,15.00
2019-02-22T17:52:38.336Z,15.53
2019-02-22T17:55:11.495Z,13.67
2019-02-22T17:57:40.066Z,13.23
2019-02-22T18:00:15.359Z,15.10
2019-02-22T18:02:43.914Z,16.50
2019-02-22T18:05:12.667Z,15.27
2019-02-22T18:07:41.152Z,19.20
2019-02-22T18:10:10.802Z,12.20
2019-02-22T18:12:39.293Z,16.30
2019-02-22T18:15:10.862Z,12.37
2019-02-22T18:17:39.892Z,16.33
2019-02-22T18:20:09.148Z,14.27
2019-02-22T18:22:37.645Z,14.47
2019-02-22T18:25:08.399Z,16.70
2019-02-22T18:27:36.953Z,13.27
2019-02-22T18:30:14.447Z,13.33
2019-02-22T18:32:42.946Z,14.57
2019-02-22T18:35:11.493Z,14.73
2019-02-22T18:37:39.983Z,13.47
2019-02-22T18:40:11.762Z,17.43
2019-02-22T18:42:41.750Z,13.23
2019-02-22T18:45:10.656Z,16.37
2019-02-22T18:47:39.153Z,17.83
2019-02-22T18:50:10.108Z,18.50
2019-02-22T18:52:38.668Z,20.27
2019-02-22T18:55:11.282Z,24.83
2019-02-22T18:57:39.994Z,19.27
2019-02-22T19:00:15.381Z,20.77
2019-02-22T19:02:43.866Z,21.10
2019-02-22T19:05:12.378Z,20.53
2019-02-22T19:07:40.861Z,19.17
2019-02-22T19:10:11.822Z,19.00
2019-02-22T19:12:40.484Z,22.63
2019-02-22T19:15:11.332Z,20.50
2019-02-22T19:17:39.814Z,19.87
2019-02-22T19:20:18.602Z,17.80
2019-02-22T19:22:47.081Z,16.13
2019-02-22T19:25:15.596Z,18.07
2019-02-22T19:27:46.427Z,20.70
2019-02-22T19:30:16.653Z,19.50
2019-02-22T19:32:45.148Z,17.40
2019-02-22T19:35:13.662Z,20.70
2019-02-22T19:37:42.149Z,21.43
2019-02-22T19:40:13.451Z,18.40
2019-02-22T19:42:41.944Z,23.00
2019-02-22T19:45:11.597Z,22.13
2019-02-22T19:47:42.264Z,20.70
2019-02-22T19:50:14.300Z,24.47
2019-02-22T19:52:42.788Z,21.93
2019-02-22T19:55:13.944Z,18.00
2019-02-22T19:57:42.403Z,21.53
2019-02-22T20:00:16.568Z,21.57
2019-02-22T20:02:45.063Z,22.87
2019-02-22T20:05:14.730Z,21.00
2019-02-22T20:07:43.231Z,22.97
2019-02-22T20:10:17.949Z,21.03
2019-02-22T20:12:44.346Z,21.60
2019-02-22T20:15:14.909Z,21.20
2019-02-22T20:17:53.336Z,24.37
2019-02-22T20:20:18.324Z,19.17
2019-02-22T20:22:46.889Z,20.20
2019-02-22T20:25:16.788Z,22.10
2019-02-22T20:27:45.278Z,20.73
2019-02-22T20:30:16.160Z,22.53
2019-02-22T20:32:44.682Z,20.20
2019-02-22T20:35:24.353Z,23.57
2019-02-22T20:37:53.466Z,25.77
2019-02-22T20:40:22.323Z,22.57
2019-02-22T20:42:53.196Z,26.20
2019-02-22T20:45:21.741Z,25.27
2019-02-22T20:47:50.234Z,28.63
2019-02-22T20:50:18.771Z,28.20
2019-02-22T20:52:47.257Z,23.93
2019-02-22T20:55:15.774Z,34.53
2019-02-22T20:57:44.272Z,28.30
2019-02-22T21:00:23.803Z,30.53
2019-02-22T21:02:52.302Z,31.83
2019-02-22T21:05:20.822Z,32.13
2019-02-22T21:07:49.339Z,32.80
2019-02-22T21:10:23.444Z,33.67
2019-02-22T21:12:53.291Z,34.90
2019-02-22T21:15:22.292Z,32.37
2019-02-22T21:17:51.290Z,32.33
2019-02-22T21:20:22.874Z,34.07
2019-02-22T21:22:51.672Z,31.40
2019-02-22T21:25:20.488Z,32.17
2019-02-22T21:27:49.393Z,37.20
2019-02-22T21:30:21.067Z,38.70
2019-02-22T21:32:51.673Z,34.20
2019-02-22T21:35:20.675Z,31.50
2019-02-22T21:37:49.458Z,34.97
2019-02-22T21:40:18.242Z,37.47
2019-02-22T21:42:46.884Z,32.90
2019-02-22T21:45:16.375Z,32.60
2019-02-22T21:47:54.130Z,31.10
2019-02-22T21:50:16.492Z,34.30
2019-02-22T21:52:45.320Z,33.57
2019-02-22T21:55:15.277Z,32.87
2019-02-22T21:57:44.862Z,36.67
2019-02-22T22:00:16.520Z,29.70
2019-02-22T22:02:45.165Z,31.07
2019-02-22T22:05:13.904Z,35.53
2019-02-22T22:07:42.679Z,28.97
2019-02-22T22:10:11.253Z,28.37
2019-02-22T22:12:39.899Z,24.87
2019-02-22T22:15:13.717Z,28.20
2019-02-22T22:17:42.577Z,25.10
2019-02-22T22:20:11.651Z,31.37
2019-02-22T22:22:40.492Z,25.07
2019-02-22T22:25:13.726Z,27.43
2019-02-22T22:27:42.646Z,27.57
2019-02-22T22:30:15.689Z,29.73
2019-02-22T22:32:45.389Z,28.87
2019-02-22T22:35:16.396Z,29.17
2019-02-22T22:37:45.070Z,32.87
2019-02-22T22:40:15.039Z,27.97
2019-02-22T22:42:45.036Z,28.77
2019-02-22T22:45:16.128Z,30.70
2019-02-22T22:47:44.929Z,25.80
2019-02-22T22:50:18.328Z,33.47
2019-02-22T22:52:46.897Z,28.80
2019-02-22T22:55:15.484Z,31.03
2019-02-22T22:57:44.353Z,30.63
2019-02-22T23:00:19.330Z,27.33
2019-02-22T23:02:48.167Z,33.83
2019-02-22T23:05:16.825Z,29.87
2019-02-22T23:07:45.369Z,31.23
2019-02-22T23:10:14.068Z,26.17
2019-02-22T23:12:44.284Z,30.17
2019-02-22T23:15:12.937Z,29.43
2019-02-22T23:17:41.449Z,30.50
2019-02-22T23:20:10.101Z,30.43
2019-02-22T23:22:38.626Z,25.43
2019-02-22T23:25:07.534Z,26.70
2019-02-22T23:27:36.052Z,29.93
2019-02-22T23:30:06.290Z,36.20
2019-02-22T23:32:34.808Z,37.63
2019-02-22T23:35:03.565Z,30.17
2019-02-22T23:37:32.080Z,34.80
2019-02-22T23:40:00.569Z,32.27
2019-02-22T23:42:29.084Z,34.20
2019-02-22T23:44:57.571Z,34.70
2019-02-22T23:47:26.101Z,33.83
2019-02-22T23:49:54.594Z,33.03
2019-02-22T23:52:23.111Z,35.97
2019-02-22T23:54:51.596Z,31.40
2019-02-22T23:57:20.108Z,33.77
2019-02-22T23:59:48.599Z,33.37
